Terminal Aerodrome Forecast
Issued by NWS Wilmington, OH

Current Version | Previous Version | Text Only | Print | Product List | Glossary Off
Versions: 1 2 3 4 5 6 7 8 9 10 11 12 13 14 15 16 17 18 19 20 21 22 23 24 25 26 27

000
FTUS41 KILN 231258 AAA
TAFCVG
TAF AMD
KCVG 231258Z 2313/2418 26004KT P6SM SCT008 SCT035 SCT250
      TEMPO 2313/2314 5SM BR BKN008
     FM231400 25005KT P6SM FEW050 SCT250
     FM240100 00000KT P6SM SCT250
     FM241300 24006KT P6SM SCT250=

USA.gov is the U.S. government's official web portal to all federal, state and local government web resources and services.